Hessel, Michigan
Current Conditions -  °F | °C
As of 4:39 AM on Friday 31 Oct 2014 (Local Time) from KMCD Reporting Station
Light Snow Light Snow  
Wind Chill: 25°   Ceiling: 700
Heat Index: 36°   Visibility: 10mi
Dew Point: 35°   Wind: 18mph
Humidity: 97%   Direction: 20°NNE
Pressure: 29.93"   Gusts: 29mph
Location:  46°N, 84.43°W
Report Text: KMCD 310839Z AUTO 02016G25KT 10SM -SN OVC007 02/02 A2993 RMK AO2 T00200016
Loading
Personal Weather Stations






























Interactive Weather Map
Tropical Storm Tracking
New forecast layout! Learn more

10-Day Weather Forecast

Advertisements
Track Severe Weather on mobile